Aérodrome :
LOGIN :

S'inscrire | Disclaimer

   EN    FR    IT 

 










Légende :    VFR   VFR Marginal   IFR   IFR Intensif   IFR Très Intensif
Visi : 
Plafond : 
>= 8 km
>= 3000ft
5 à 8 km
1000 à 3000 ft
1500m à 5 km
500 à 1000 ft
800 à 1500m
200 à 500 ft
< 800m
< 200 ft
Symboles :   Orages  Brouillard  Fortes neiges  Fortes précipitations  Vent > 20 kt
SIGMETs :   Divers  Orages  Givrage  Turbulence  Onde Orograph.  Cendres Volcan.






- Altitude de l'aérodrome : 870 ft
- Code IATA : ETZ


LFJL - Metz Nancy Lorraine

DERNIER METAR :
  • 231330Z AUTO 35007KT 9999 FEW015 SCT060 09/M02 Q1017 NOSIG

METARs EXPIRÉS :
  • 231300Z AUTO 35010KT CAVOK 09/M02 Q1017 NOSIG
  • 231230Z AUTO 36008KT 330V040 9999 FEW009 BKN064 BKN220 10/M00 Q1017 NOSIG
  • 231200Z AUTO 36009KT 330V040 9999 FEW009 BKN060 10/M03 Q1017 NOSIG
  • 231130Z AUTO 36009KT CAVOK 09/M03 Q1018 NOSIG
  • 231100Z AUTO 05008KT 020V090 CAVOK 09/M02 Q1018 NOSIG
  • 231030Z AUTO 02008KT CAVOK 09/M01 Q1018 NOSIG
  • 231000Z AUTO 07007KT 020V090 9999 BKN046 09/M01 Q1018 NOSIG
  • 230930Z AUTO 03007KT 340V100 9999 BKN038 BKN045 08/01 Q1018 NOSIG
  • 230900Z AUTO 03008KT CAVOK 08/01 Q1019 NOSIG

TAF TAF LFJL
Valide du 23 à 12h jusqu'au 24 à 12h UTC


231100Z 2312/2412 02008KT CAVOK
PROB40
TEMPO 2403/2408 -RA BKN012
BECMG 2408/2410 30010KT
TEMPO 2410/2412 -SHRA FEW025TCU



MET'MAP, la Météo Aéronautique d'un coup d'oeil ! - Copyright ORBIFLY Décembre 2007 - Disclaimer

ORBIFLY MET'MAP TEAM :

Programmation & Développement : Alexandra Zaïnal
Sur une idée originale de : Baudouin d'Aumeries
Soutien technique & logistique : Manuel Goepfert
Assistance : Marc-Olivier Méhu




SOURCES & CREDITS :

   NOAA